createdAt,value
2022-12-02T00:01:36.522Z,9.95
2022-12-02T00:04:22.330Z,9.95
2022-12-02T00:06:50.394Z,9.65
2022-12-02T00:09:33.305Z,9.20
2022-12-02T00:12:13.042Z,11.50
2022-12-02T00:14:39.947Z,11.82
2022-12-02T00:17:06.724Z,11.90
2022-12-02T00:19:33.424Z,9.45
2022-12-02T00:22:00.124Z,9.35
2022-12-02T00:24:26.955Z,8.65
2022-12-02T00:26:53.728Z,9.30
2022-12-02T00:29:20.562Z,8.95
2022-12-02T00:31:47.372Z,8.95
2022-12-02T00:34:15.379Z,9.25
2022-12-02T00:36:42.177Z,9.70
2022-12-02T00:39:10.295Z,10.38
2022-12-02T00:41:39.025Z,9.13
2022-12-02T00:44:24.550Z,9.68
2022-12-02T00:46:51.257Z,8.68
2022-12-02T00:49:18.853Z,8.55
2022-12-02T00:51:45.975Z,9.02
2022-12-02T00:54:13.507Z,8.77
2022-12-02T00:56:41.145Z,8.68
2022-12-02T00:59:08.231Z,9.65
2022-12-02T01:01:36.487Z,8.85
2022-12-02T01:04:04.865Z,9.07
2022-12-02T01:06:32.064Z,10.07
2022-12-02T01:08:58.935Z,9.85
2022-12-02T01:11:25.634Z,9.52
2022-12-02T01:13:52.365Z,10.18
2022-12-02T01:16:19.186Z,10.65
2022-12-02T01:18:45.954Z,11.35
2022-12-02T01:21:14.477Z,10.20
2022-12-02T01:23:41.195Z,9.13
2022-12-02T01:26:09.518Z,10.63
2022-12-02T01:28:36.299Z,9.93
2022-12-02T01:31:03.180Z,9.88
2022-12-02T01:33:30.924Z,9.40
2022-12-02T01:35:57.617Z,10.75
2022-12-02T01:38:24.332Z,10.80
2022-12-02T01:40:52.176Z,11.52
2022-12-02T01:43:20.399Z,11.02
2022-12-02T01:45:47.309Z,12.75
2022-12-02T01:48:14.146Z,10.80
2022-12-02T01:50:41.758Z,11.85
2022-12-02T01:53:08.548Z,10.70
2022-12-02T01:55:35.787Z,11.07
2022-12-02T01:58:02.692Z,9.80
2022-12-02T02:00:29.960Z,9.73
2022-12-02T02:02:57.061Z,11.68
2022-12-02T02:05:29.051Z,12.63
2022-12-02T02:07:59.134Z,11.75
2022-12-02T02:10:27.556Z,10.57
2022-12-02T02:12:55.282Z,11.02
2022-12-02T02:15:23.495Z,12.52
2022-12-02T02:17:50.845Z,11.18
2022-12-02T02:20:24.598Z,10.27
2022-12-02T02:23:06.657Z,10.02
2022-12-02T02:25:43.627Z,8.50
2022-12-02T02:28:11.143Z,8.80
2022-12-02T02:30:39.380Z,10.93
2022-12-02T02:33:08.659Z,9.02
2022-12-02T02:35:38.154Z,8.23
2022-12-02T02:38:07.479Z,9.35
2022-12-02T02:40:34.892Z,8.88
2022-12-02T02:43:03.952Z,9.75
2022-12-02T02:45:34.782Z,9.38
2022-12-02T02:48:05.494Z,9.82
2022-12-02T02:50:34.914Z,8.95
2022-12-02T02:53:03.424Z,10.18
2022-12-02T02:55:32.249Z,7.82
2022-12-02T02:58:15.772Z,7.65
2022-12-02T03:00:51.851Z,7.45
2022-12-02T03:03:22.075Z,7.10
2022-12-02T03:05:51.518Z,6.57
2022-12-02T03:08:20.591Z,7.80
2022-12-02T03:10:48.577Z,7.10
2022-12-02T03:13:15.649Z,6.80
2022-12-02T03:15:42.688Z,7.03
2022-12-02T03:18:09.806Z,7.55
2022-12-02T03:20:36.598Z,7.03
2022-12-02T03:23:03.588Z,7.65
2022-12-02T03:25:31.309Z,8.13
2022-12-02T03:27:58.690Z,8.48
2022-12-02T03:30:25.502Z,8.20
2022-12-02T03:32:52.537Z,7.25
2022-12-02T03:35:19.282Z,7.10
2022-12-02T03:37:46.252Z,7.00
2022-12-02T03:40:13.143Z,5.93
2022-12-02T03:42:40.084Z,7.28
2022-12-02T03:45:08.125Z,6.57
2022-12-02T03:47:35.079Z,6.38
2022-12-02T03:50:02.583Z,5.93
2022-12-02T03:52:29.606Z,5.60
2022-12-02T03:54:57.352Z,6.40
2022-12-02T03:57:24.767Z,7.30
2022-12-02T03:59:51.593Z,6.32
2022-12-02T04:02:18.345Z,7.15
2022-12-02T04:04:45.069Z,5.65
2022-12-02T04:07:11.764Z,6.32
2022-12-02T04:09:38.458Z,6.22
2022-12-02T04:12:05.439Z,6.85
2022-12-02T04:14:32.138Z,6.13
2022-12-02T04:17:00.632Z,6.30
2022-12-02T04:22:02.158Z,5.93
2022-12-02T04:24:28.975Z,6.70
2022-12-02T04:26:56.014Z,7.45
2022-12-02T04:29:22.875Z,7.47
2022-12-02T04:31:49.617Z,6.00
2022-12-02T04:34:16.290Z,6.57
2022-12-02T04:36:42.997Z,6.47
2022-12-02T04:39:09.802Z,7.50
2022-12-02T04:41:36.506Z,6.20
2022-12-02T04:44:03.751Z,6.80
2022-12-02T04:46:30.547Z,6.93
2022-12-02T04:48:57.298Z,7.28
2022-12-02T04:51:24.003Z,6.28
2022-12-02T04:53:50.727Z,6.80
2022-12-02T04:56:17.426Z,6.40
2022-12-02T04:58:44.146Z,6.07
2022-12-02T05:01:11.001Z,6.47
2022-12-02T05:03:37.763Z,7.65
2022-12-02T05:06:04.585Z,6.63
2022-12-02T05:08:31.274Z,7.00
2022-12-02T05:10:57.978Z,8.07
2022-12-02T05:13:24.691Z,8.05
2022-12-02T05:15:51.433Z,8.10
2022-12-02T05:18:18.208Z,8.23
2022-12-02T05:20:44.934Z,9.82
2022-12-02T05:23:13.685Z,9.43
2022-12-02T05:25:40.559Z,10.25
2022-12-02T05:28:07.428Z,9.13
2022-12-02T05:30:34.159Z,8.68
2022-12-02T05:33:01.058Z,9.00
2022-12-02T05:35:27.783Z,9.13
2022-12-02T05:37:54.473Z,8.07
2022-12-02T05:40:21.179Z,7.55
2022-12-02T05:42:47.919Z,6.00
2022-12-02T05:45:22.320Z,7.20
2022-12-02T05:47:52.778Z,7.20
2022-12-02T05:50:20.858Z,7.30
2022-12-02T05:52:55.013Z,6.55
2022-12-02T05:55:22.215Z,4.95
2022-12-02T05:57:49.149Z,7.43
2022-12-02T06:00:23.248Z,8.18
2022-12-02T06:02:55.848Z,7.30
2022-12-02T06:05:24.381Z,7.82
2022-12-02T06:08:00.595Z,10.45
2022-12-02T06:10:33.468Z,9.27
2022-12-02T06:13:15.897Z,10.32
2022-12-02T06:15:42.794Z,10.60
2022-12-02T06:18:24.465Z,10.90
2022-12-02T06:20:55.107Z,11.23
2022-12-02T06:23:22.638Z,10.55
2022-12-02T06:25:52.382Z,10.57
2022-12-02T06:28:22.839Z,11.43
2022-12-02T06:30:49.815Z,10.40
2022-12-02T06:33:33.595Z,12.27
2022-12-02T06:36:04.152Z,9.15
2022-12-02T06:38:37.153Z,8.32
2022-12-02T06:41:31.762Z,8.32
2022-12-02T06:44:28.797Z,10.27
2022-12-02T06:46:55.527Z,9.63
2022-12-02T06:49:24.122Z,11.38
2022-12-02T06:51:58.099Z,10.95
2022-12-02T06:54:29.542Z,10.85
2022-12-02T06:56:58.628Z,9.20
2022-12-02T06:59:26.771Z,9.63
2022-12-02T07:02:06.407Z,9.55
2022-12-02T07:04:49.146Z,9.63
2022-12-02T07:07:42.497Z,10.10
2022-12-02T07:10:27.480Z,10.32
2022-12-02T07:12:57.141Z,9.75
2022-12-02T07:15:32.522Z,8.90
2022-12-02T07:18:18.461Z,9.77
2022-12-02T07:20:46.454Z,10.35
2022-12-02T07:23:25.057Z,9.55
2022-12-02T07:25:57.730Z,10.43
2022-12-02T07:28:33.851Z,8.65
2022-12-02T07:31:22.627Z,8.38
2022-12-02T07:33:50.283Z,8.55
2022-12-02T07:36:18.018Z,8.38
2022-12-02T07:41:36.232Z,7.70
2022-12-02T07:46:31.060Z,7.32
2022-12-02T07:48:57.844Z,6.93
2022-12-02T07:51:25.055Z,6.97
2022-12-02T07:53:52.048Z,7.68
2022-12-02T07:56:18.783Z,7.10
2022-12-02T08:01:32.250Z,6.50
2022-12-02T08:03:59.169Z,6.72
2022-12-02T08:06:25.915Z,7.75
2022-12-02T08:08:52.755Z,8.77
2022-12-02T08:11:19.479Z,8.75
2022-12-02T08:13:46.192Z,11.68
2022-12-02T08:16:12.873Z,14.43
2022-12-02T08:18:39.575Z,16.02
2022-12-02T08:21:09.224Z,14.27
2022-12-02T08:23:36.979Z,16.98
2022-12-02T08:26:04.314Z,13.60
2022-12-02T08:28:31.094Z,12.10
2022-12-02T08:30:57.869Z,10.65
2022-12-02T08:33:24.741Z,9.52
2022-12-02T08:35:51.499Z,8.50
2022-12-02T08:38:18.439Z,8.60
2022-12-02T08:40:45.183Z,7.60
2022-12-02T08:43:12.028Z,7.00
2022-12-02T08:45:38.707Z,7.47
2022-12-02T08:48:05.555Z,16.40
2022-12-02T08:50:32.362Z,12.80
2022-12-02T08:52:59.093Z,7.93
2022-12-02T08:55:26.737Z,8.02
2022-12-02T08:57:53.850Z,7.15
2022-12-02T09:00:20.810Z,9.10
2022-12-02T09:02:47.965Z,8.43
2022-12-02T09:05:14.878Z,6.65
2022-12-02T09:07:41.716Z,7.47
2022-12-02T09:10:09.864Z,7.55
2022-12-02T09:12:36.645Z,7.22
2022-12-02T09:15:03.542Z,6.68
2022-12-02T09:17:30.267Z,6.75
2022-12-02T09:19:57.001Z,6.80
2022-12-02T09:22:23.714Z,7.20
2022-12-02T09:24:50.638Z,6.20
2022-12-02T09:27:17.621Z,6.38
2022-12-02T09:29:44.395Z,6.60
2022-12-02T09:32:11.112Z,6.15
2022-12-02T09:34:37.898Z,5.70
2022-12-02T09:37:04.674Z,5.38
2022-12-02T09:39:37.165Z,6.18
2022-12-02T09:42:06.594Z,5.75
2022-12-02T09:44:33.355Z,6.38
2022-12-02T09:47:00.261Z,6.40
2022-12-02T09:49:27.135Z,6.00
2022-12-02T09:52:00.512Z,5.70
2022-12-02T09:54:27.593Z,6.15
2022-12-02T09:56:54.716Z,6.80
2022-12-02T09:59:22.837Z,6.50
2022-12-02T10:01:50.433Z,6.60
2022-12-02T10:04:21.273Z,6.45
2022-12-02T10:06:48.379Z,6.95
2022-12-02T10:09:28.369Z,8.00
2022-12-02T10:11:55.172Z,7.82
2022-12-02T10:14:22.645Z,7.50
2022-12-02T10:16:51.190Z,7.45
2022-12-02T10:19:19.708Z,7.07
2022-12-02T10:21:47.243Z,8.05
2022-12-02T10:24:13.999Z,7.53
2022-12-02T10:26:52.628Z,7.28
2022-12-02T10:29:30.424Z,7.43
2022-12-02T10:32:00.057Z,6.50
2022-12-02T10:34:28.611Z,7.68
2022-12-02T10:36:55.731Z,9.38
2022-12-02T10:39:30.101Z,8.27
2022-12-02T10:42:08.949Z,8.85
2022-12-02T10:44:38.930Z,8.63
2022-12-02T10:47:26.588Z,8.93
2022-12-02T10:49:58.553Z,9.75
2022-12-02T10:52:40.337Z,10.38
2022-12-02T10:55:11.807Z,9.43
2022-12-02T10:57:39.175Z,9.32
2022-12-02T11:00:21.143Z,9.48
2022-12-02T11:02:54.796Z,13.55
2022-12-02T11:05:27.069Z,12.55
2022-12-02T11:08:02.927Z,10.13
2022-12-02T11:10:41.275Z,10.00
2022-12-02T11:13:13.909Z,8.30
2022-12-02T11:15:46.032Z,8.70
2022-12-02T11:18:38.564Z,9.13
2022-12-02T11:21:28.027Z,9.50
2022-12-02T11:24:26.449Z,8.73
2022-12-02T11:27:04.844Z,8.23
2022-12-02T11:29:43.059Z,9.13
2022-12-02T11:32:26.313Z,8.45
2022-12-02T11:37:45.766Z,8.93
2022-12-02T11:40:14.246Z,7.85
2022-12-02T11:42:42.882Z,9.07
2022-12-02T11:45:15.563Z,9.63
2022-12-02T11:47:44.457Z,7.85
2022-12-02T11:50:22.999Z,9.27
2022-12-02T11:52:54.188Z,8.85
2022-12-02T11:55:42.689Z,8.65
2022-12-02T11:58:24.723Z,9.55
2022-12-02T12:01:13.059Z,9.25
2022-12-02T12:03:58.000Z,9.18
2022-12-02T12:06:26.435Z,10.02
2022-12-02T12:08:57.031Z,9.32
2022-12-02T12:11:30.285Z,8.27
2022-12-02T12:14:03.062Z,8.95
2022-12-02T12:16:34.855Z,8.88
2022-12-02T12:19:13.425Z,9.23
2022-12-02T12:21:55.672Z,9.70
2022-12-02T12:24:23.528Z,9.27
2022-12-02T12:26:51.667Z,8.57
2022-12-02T12:29:19.970Z,10.18
2022-12-02T12:31:47.300Z,9.95
2022-12-02T12:34:16.523Z,11.00
2022-12-02T12:36:45.494Z,8.95
2022-12-02T12:39:12.935Z,9.43
2022-12-02T12:44:30.025Z,9.40
2022-12-02T12:46:59.926Z,8.32
2022-12-02T12:49:27.331Z,9.85
2022-12-02T12:51:54.215Z,10.15
2022-12-02T12:54:21.490Z,9.43
2022-12-02T12:56:48.193Z,9.02
2022-12-02T12:59:15.027Z,10.85
2022-12-02T13:01:43.793Z,12.80
2022-12-02T13:04:10.706Z,12.38
2022-12-02T13:06:42.557Z,11.38
2022-12-02T13:09:11.370Z,10.15
2022-12-02T13:11:38.282Z,10.15
2022-12-02T13:14:05.270Z,10.23
2022-12-02T13:16:32.639Z,10.10
2022-12-02T13:18:59.526Z,9.20
2022-12-02T13:21:26.515Z,10.60
2022-12-02T13:23:53.456Z,10.15
2022-12-02T13:26:20.234Z,9.95
2022-12-02T13:28:47.044Z,9.95
2022-12-02T13:31:13.979Z,8.38
2022-12-02T13:33:40.883Z,9.32
2022-12-02T13:36:08.115Z,7.97
2022-12-02T13:38:34.956Z,9.20
2022-12-02T13:41:01.738Z,10.45
2022-12-02T13:43:28.564Z,13.20
2022-12-02T13:45:55.354Z,10.38
2022-12-02T13:48:22.195Z,10.95
2022-12-02T13:50:48.974Z,10.77
2022-12-02T13:53:15.751Z,10.25
2022-12-02T13:55:42.442Z,10.40
2022-12-02T13:58:09.179Z,10.73
2022-12-02T14:00:36.004Z,9.45
2022-12-02T14:03:02.738Z,11.05
2022-12-02T14:05:29.489Z,11.05
2022-12-02T14:07:56.355Z,10.77
2022-12-02T14:10:23.076Z,10.75
2022-12-02T14:12:49.787Z,8.98
2022-12-02T14:15:16.540Z,9.90
2022-12-02T14:17:43.230Z,10.20
2022-12-02T14:20:10.555Z,9.57
2022-12-02T14:22:37.301Z,10.05
2022-12-02T14:25:04.252Z,9.48
2022-12-02T14:27:30.999Z,9.65
2022-12-02T14:29:57.960Z,10.27
2022-12-02T14:32:24.885Z,11.18
2022-12-02T14:34:52.173Z,10.77
2022-12-02T14:37:19.094Z,9.63
2022-12-02T14:39:45.821Z,11.43
2022-12-02T14:42:12.572Z,11.38
2022-12-02T14:44:39.518Z,9.73
2022-12-02T14:47:06.276Z,9.98
2022-12-02T14:49:41.397Z,10.50
2022-12-02T14:52:08.741Z,10.32
2022-12-02T14:54:35.525Z,10.93
2022-12-02T14:57:02.654Z,11.00
2022-12-02T14:59:29.511Z,11.60
2022-12-02T15:01:56.571Z,9.82
2022-12-02T15:04:23.747Z,10.43
2022-12-02T15:06:50.691Z,9.70
2022-12-02T15:09:17.564Z,10.73
2022-12-02T15:11:44.338Z,9.98
2022-12-02T15:14:11.065Z,10.38
2022-12-02T15:16:38.012Z,11.02
2022-12-02T15:19:04.857Z,10.32
2022-12-02T15:21:31.792Z,10.90
2022-12-02T15:23:58.615Z,10.57
2022-12-02T15:26:25.328Z,11.98
2022-12-02T15:28:52.251Z,11.57
2022-12-02T15:31:19.182Z,10.95
2022-12-02T15:33:46.659Z,12.60
2022-12-02T15:36:14.030Z,10.30
2022-12-02T15:38:41.382Z,12.00
2022-12-02T15:41:08.634Z,12.75
2022-12-02T15:43:35.466Z,12.73
2022-12-02T15:46:02.158Z,12.18
2022-12-02T15:48:28.855Z,11.63
2022-12-02T15:50:55.921Z,11.27
2022-12-02T15:53:23.795Z,10.30
2022-12-02T15:55:50.960Z,11.88
2022-12-02T15:58:18.290Z,14.02
2022-12-02T16:00:45.194Z,11.45
2022-12-02T16:03:12.018Z,11.93
2022-12-02T16:05:38.795Z,10.98
2022-12-02T16:08:05.621Z,11.73
2022-12-02T16:10:32.405Z,12.50
2022-12-02T16:12:59.202Z,11.20
2022-12-02T16:15:25.984Z,11.52
2022-12-02T16:17:52.693Z,11.48
2022-12-02T16:20:19.441Z,11.82
2022-12-02T16:22:46.167Z,11.40
2022-12-02T16:25:13.095Z,11.20
2022-12-02T16:27:39.830Z,9.48
2022-12-02T16:30:07.314Z,9.40
2022-12-02T16:32:34.028Z,11.43
2022-12-02T16:35:00.806Z,10.70
2022-12-02T16:37:27.617Z,10.20
2022-12-02T16:39:54.332Z,9.43
2022-12-02T16:42:21.210Z,11.32
2022-12-02T16:44:53.568Z,10.50
2022-12-02T16:47:22.572Z,9.48
2022-12-02T16:49:49.728Z,10.23
2022-12-02T16:52:16.480Z,9.85
2022-12-02T16:54:43.351Z,10.55
2022-12-02T16:57:10.067Z,10.90
2022-12-02T16:59:36.779Z,10.07
2022-12-02T17:02:03.592Z,10.82
2022-12-02T17:04:30.343Z,10.27
2022-12-02T17:06:57.097Z,11.27
2022-12-02T17:09:23.907Z,10.57
2022-12-02T17:11:50.618Z,9.40
2022-12-02T17:14:17.471Z,11.90
2022-12-02T17:16:44.269Z,10.95
2022-12-02T17:19:11.161Z,9.82
2022-12-02T17:21:37.849Z,9.27
2022-12-02T17:24:04.852Z,9.05
2022-12-02T17:26:31.757Z,9.82
2022-12-02T17:28:58.587Z,11.00
2022-12-02T17:31:25.329Z,9.68
2022-12-02T17:33:52.085Z,10.25
2022-12-02T17:36:18.787Z,10.65
2022-12-02T17:38:56.106Z,10.85
2022-12-02T17:41:24.833Z,9.85
2022-12-02T17:43:51.713Z,10.95
2022-12-02T17:46:19.315Z,9.60
2022-12-02T17:48:46.175Z,9.60
2022-12-02T17:51:13.863Z,10.40
2022-12-02T17:53:41.229Z,14.50
2022-12-02T17:56:09.059Z,14.45
2022-12-02T17:58:36.332Z,17.33
2022-12-02T18:01:09.431Z,12.25
2022-12-02T18:03:37.851Z,11.88
2022-12-02T18:06:06.027Z,12.40
2022-12-02T18:08:33.139Z,16.27
2022-12-02T18:10:59.849Z,13.00
2022-12-02T18:13:26.707Z,14.35
2022-12-02T18:15:53.405Z,13.52
2022-12-02T18:18:20.149Z,13.68
2022-12-02T18:20:47.107Z,14.25
2022-12-02T18:23:13.853Z,14.70
2022-12-02T18:25:40.755Z,11.10
2022-12-02T18:28:08.365Z,12.13
2022-12-02T18:30:35.208Z,9.70
2022-12-02T18:33:02.056Z,10.10
2022-12-02T18:35:28.867Z,8.93
2022-12-02T18:37:55.613Z,11.10
2022-12-02T18:40:22.336Z,9.48
2022-12-02T18:42:49.611Z,10.73
2022-12-02T18:45:16.440Z,9.95
2022-12-02T18:47:43.296Z,10.07
2022-12-02T18:50:10.818Z,9.23
2022-12-02T18:52:37.583Z,10.07
2022-12-02T18:55:05.502Z,9.75
2022-12-02T18:57:32.611Z,9.00
2022-12-02T18:59:59.306Z,8.27
2022-12-02T19:02:26.188Z,8.25
2022-12-02T19:04:54.269Z,9.27
2022-12-02T19:07:21.431Z,9.48
2022-12-02T19:09:53.300Z,8.23
2022-12-02T19:12:21.056Z,9.55
2022-12-02T19:14:48.155Z,8.15
2022-12-02T19:17:15.268Z,10.90
2022-12-02T19:19:42.858Z,11.55
2022-12-02T19:22:12.573Z,10.75
2022-12-02T19:24:39.394Z,11.50
2022-12-02T19:27:06.611Z,12.00
2022-12-02T19:29:33.316Z,11.57
2022-12-02T19:32:00.240Z,12.27
2022-12-02T19:34:27.073Z,14.32
2022-12-02T19:36:54.146Z,12.60
2022-12-02T19:39:21.041Z,11.85
2022-12-02T19:41:47.762Z,12.63
2022-12-02T19:44:14.612Z,12.77
2022-12-02T19:46:41.433Z,10.77
2022-12-02T19:49:08.480Z,11.90
2022-12-02T19:51:35.197Z,10.55
2022-12-02T19:54:01.931Z,9.00
2022-12-02T19:56:28.612Z,10.60
2022-12-02T19:58:55.379Z,11.73
2022-12-02T20:01:23.627Z,9.65
2022-12-02T20:03:50.498Z,10.63
2022-12-02T20:06:17.548Z,10.95
2022-12-02T20:08:44.475Z,9.63
2022-12-02T20:11:11.314Z,10.82
2022-12-02T20:13:38.148Z,11.32
2022-12-02T20:16:05.105Z,11.00
2022-12-02T20:18:31.902Z,10.40
2022-12-02T20:20:58.690Z,11.63
2022-12-02T20:23:25.454Z,11.13
2022-12-02T20:25:52.329Z,11.95
2022-12-02T20:28:19.510Z,11.90
2022-12-02T20:30:46.342Z,10.73
2022-12-02T20:33:13.123Z,11.85
2022-12-02T20:35:39.920Z,10.30
2022-12-02T20:38:06.637Z,11.68
2022-12-02T20:40:33.490Z,11.70
2022-12-02T20:43:00.327Z,10.70
2022-12-02T20:45:27.164Z,10.70
2022-12-02T20:47:53.922Z,11.15
2022-12-02T20:50:20.660Z,11.95
2022-12-02T20:52:53.658Z,10.80
2022-12-02T20:55:21.277Z,9.52
2022-12-02T20:57:48.576Z,9.95
2022-12-02T21:00:16.363Z,9.70
2022-12-02T21:02:43.514Z,8.48
2022-12-02T21:05:10.832Z,10.10
2022-12-02T21:07:38.396Z,10.32
2022-12-02T21:10:06.164Z,10.40
2022-12-02T21:12:34.579Z,9.85
2022-12-02T21:15:01.555Z,8.82
2022-12-02T21:17:30.405Z,9.38
2022-12-02T21:19:57.659Z,10.73
2022-12-02T21:22:24.751Z,9.25
2022-12-02T21:24:53.348Z,8.93
2022-12-02T21:27:20.327Z,9.70
2022-12-02T21:29:47.118Z,10.38
2022-12-02T21:32:13.807Z,10.70
2022-12-02T21:34:40.616Z,10.55
2022-12-02T21:37:07.490Z,10.43
2022-12-02T21:39:34.196Z,8.90
2022-12-02T21:42:00.994Z,10.20
2022-12-02T21:44:28.126Z,9.55
2022-12-02T21:46:55.091Z,9.82
2022-12-02T21:49:26.576Z,9.00
2022-12-02T21:51:53.419Z,9.82
2022-12-02T21:54:20.303Z,9.52
2022-12-02T21:56:47.044Z,9.75
2022-12-02T21:59:14.217Z,8.15
2022-12-02T22:01:42.605Z,10.00
2022-12-02T22:04:12.812Z,10.73
2022-12-02T22:06:39.980Z,10.60
2022-12-02T22:09:07.252Z,11.10
2022-12-02T22:11:34.654Z,10.02
2022-12-02T22:14:01.767Z,11.35
2022-12-02T22:16:29.864Z,12.18
2022-12-02T22:18:56.822Z,10.13
2022-12-02T22:21:23.877Z,12.40
2022-12-02T22:23:50.763Z,11.98
2022-12-02T22:26:20.040Z,12.35
2022-12-02T22:28:47.040Z,12.85
2022-12-02T22:31:14.216Z,13.93
2022-12-02T22:33:41.056Z,13.25
2022-12-02T22:36:08.121Z,12.23
2022-12-02T22:38:34.831Z,12.15
2022-12-02T22:41:01.591Z,11.90
2022-12-02T22:43:28.394Z,9.73
2022-12-02T22:45:55.212Z,12.55
2022-12-02T22:48:22.162Z,12.88
2022-12-02T22:50:48.871Z,11.18
2022-12-02T22:53:15.627Z,12.05
2022-12-02T22:55:42.563Z,13.43
2022-12-02T22:58:09.358Z,12.30
2022-12-02T23:00:36.061Z,11.18
2022-12-02T23:03:02.934Z,10.60
2022-12-02T23:05:29.699Z,11.77
2022-12-02T23:07:56.553Z,12.60
2022-12-02T23:10:23.339Z,11.15
2022-12-02T23:12:50.360Z,11.23
2022-12-02T23:18:03.987Z,9.88
2022-12-02T23:20:30.823Z,11.52
2022-12-02T23:22:57.551Z,11.32
2022-12-02T23:25:24.451Z,10.90
2022-12-02T23:27:51.213Z,11.57
2022-12-02T23:30:18.718Z,10.13
2022-12-02T23:32:46.554Z,11.63
2022-12-02T23:35:13.527Z,11.80
2022-12-02T23:37:40.239Z,9.13
2022-12-02T23:40:08.566Z,11.93
2022-12-02T23:42:38.333Z,11.88
2022-12-02T23:45:06.223Z,11.25
2022-12-02T23:47:33.331Z,10.00
2022-12-02T23:50:00.172Z,11.10
2022-12-02T23:52:27.453Z,9.73
2022-12-02T23:54:54.364Z,10.10
2022-12-02T23:57:21.471Z,10.77
2022-12-02T23:59:48.193Z,9.30
